createdAt,value
2023-05-11T00:00:49.741Z,99.99
2023-05-11T00:01:49.754Z,99.99
2023-05-11T00:02:49.808Z,99.99
2023-05-11T00:03:49.777Z,99.99
2023-05-11T00:04:49.717Z,99.99
2023-05-11T00:05:49.682Z,99.99
2023-05-11T00:06:49.677Z,99.99
2023-05-11T00:07:49.692Z,99.99
2023-05-11T00:08:49.651Z,99.99
2023-05-11T00:09:49.633Z,99.99
2023-05-11T00:10:49.656Z,99.99
2023-05-11T00:11:49.617Z,99.99
2023-05-11T00:12:49.648Z,99.99
2023-05-11T00:13:49.621Z,99.99
2023-05-11T00:14:49.590Z,99.99
2023-05-11T00:15:49.606Z,99.99
2023-05-11T00:16:49.574Z,99.99
2023-05-11T00:17:49.608Z,99.99
2023-05-11T00:18:49.630Z,99.99
2023-05-11T00:19:49.532Z,99.99
2023-05-11T00:20:49.528Z,99.99
2023-05-11T00:21:49.531Z,99.99
2023-05-11T00:22:49.500Z,99.99
2023-05-11T00:23:49.495Z,99.99
2023-05-11T00:24:49.488Z,99.99
2023-05-11T00:25:49.482Z,99.99
2023-05-11T00:26:49.492Z,99.99
2023-05-11T00:27:49.438Z,99.99
2023-05-11T00:28:49.458Z,99.99
2023-05-11T00:29:56.188Z,99.99
2023-05-11T00:30:49.496Z,99.99
2023-05-11T00:31:49.455Z,99.99
2023-05-11T00:32:49.484Z,99.99
2023-05-11T00:33:49.402Z,99.99
2023-05-11T00:34:49.402Z,99.99
2023-05-11T00:35:49.422Z,99.99
2023-05-11T00:36:49.362Z,99.99
2023-05-11T00:37:49.351Z,99.99
2023-05-11T00:38:49.358Z,99.99
2023-05-11T00:39:49.333Z,99.99
2023-05-11T00:40:49.362Z,99.99
2023-05-11T00:41:49.398Z,99.99
2023-05-11T00:42:49.378Z,99.99
2023-05-11T00:43:49.291Z,99.99
2023-05-11T00:44:49.312Z,99.99
2023-05-11T00:45:49.300Z,99.99
2023-05-11T00:46:49.332Z,99.99
2023-05-11T00:47:49.282Z,99.99
2023-05-11T00:48:49.242Z,99.99
2023-05-11T00:49:49.242Z,99.99
2023-05-11T00:50:49.213Z,99.99
2023-05-11T00:51:49.201Z,99.99
2023-05-11T00:52:49.211Z,99.99
2023-05-11T00:53:49.200Z,99.99
2023-05-11T00:54:49.198Z,99.99
2023-05-11T00:55:49.151Z,99.99
2023-05-11T00:56:49.139Z,99.99
2023-05-11T00:57:49.145Z,99.99
2023-05-11T00:58:49.186Z,99.99
2023-05-11T00:59:49.126Z,99.99
2023-05-11T01:00:49.119Z,99.99
2023-05-11T01:01:49.112Z,99.99
2023-05-11T01:02:49.183Z,99.99
2023-05-11T01:03:49.106Z,99.99
2023-05-11T01:04:49.069Z,99.99
2023-05-11T01:05:49.041Z,99.99
2023-05-11T01:06:49.052Z,99.99
2023-05-11T01:07:49.027Z,99.99
2023-05-11T01:08:49.076Z,99.99
2023-05-11T01:09:49.029Z,99.99
2023-05-11T01:10:48.998Z,99.99
2023-05-11T01:11:48.988Z,99.99
2023-05-11T01:12:49.016Z,99.99
2023-05-11T01:13:48.981Z,99.99
2023-05-11T01:14:48.952Z,99.99
2023-05-11T01:15:48.951Z,99.99
2023-05-11T01:16:49.085Z,99.99
2023-05-11T01:17:49.009Z,99.99
2023-05-11T01:18:48.972Z,99.99
2023-05-11T01:19:48.903Z,99.99
2023-05-11T01:20:48.894Z,99.99
2023-05-11T01:21:48.895Z,99.99
2023-05-11T01:22:48.942Z,99.99
2023-05-11T01:23:48.872Z,99.99
2023-05-11T01:24:48.895Z,99.99
2023-05-11T01:25:48.829Z,99.99
2023-05-11T01:26:48.854Z,99.99
2023-05-11T01:27:48.829Z,99.99
2023-05-11T01:28:48.816Z,99.99
2023-05-11T01:29:48.790Z,99.99
2023-05-11T01:30:48.812Z,99.99
2023-05-11T01:31:48.845Z,99.99
2023-05-11T01:32:48.794Z,99.99
2023-05-11T01:33:48.781Z,99.99
2023-05-11T01:34:48.774Z,99.99
2023-05-11T01:35:48.765Z,99.99
2023-05-11T01:36:48.760Z,99.99
2023-05-11T01:37:48.700Z,99.99
2023-05-11T01:38:48.736Z,99.99
2023-05-11T01:39:48.725Z,99.99
2023-05-11T01:40:48.705Z,99.99
2023-05-11T01:41:48.659Z,99.99
2023-05-11T01:42:48.656Z,99.99
2023-05-11T01:43:48.643Z,99.99
2023-05-11T01:44:48.637Z,99.99
2023-05-11T01:45:51.230Z,99.99
2023-05-11T01:46:48.619Z,99.99
2023-05-11T01:47:48.620Z,99.99
2023-05-11T01:48:48.600Z,99.99
2023-05-11T01:49:48.602Z,99.99
2023-05-11T01:50:48.568Z,99.99
2023-05-11T01:51:48.571Z,99.99
2023-05-11T01:52:48.572Z,99.99
2023-05-11T01:53:48.561Z,99.99
2023-05-11T01:54:48.570Z,99.99
2023-05-11T01:55:48.514Z,99.99
2023-05-11T01:56:48.522Z,99.99
2023-05-11T01:57:48.496Z,99.99
2023-05-11T01:58:48.503Z,99.99
2023-05-11T01:59:48.524Z,99.99
2023-05-11T02:00:48.476Z,99.99
2023-05-11T02:01:48.491Z,99.99
2023-05-11T02:02:48.495Z,99.99
2023-05-11T02:03:48.496Z,99.99
2023-05-11T02:04:48.468Z,99.99
2023-05-11T02:05:48.400Z,99.99
2023-05-11T02:06:48.411Z,99.99
2023-05-11T02:07:48.402Z,99.99
2023-05-11T02:08:48.421Z,99.99
2023-05-11T02:09:48.358Z,99.99
2023-05-11T02:10:48.370Z,99.99
2023-05-11T02:11:48.327Z,99.99
2023-05-11T02:12:48.338Z,99.99
2023-05-11T02:13:48.361Z,99.99
2023-05-11T02:14:48.309Z,99.99
2023-05-11T02:15:48.336Z,99.99
2023-05-11T02:16:48.304Z,99.99
2023-05-11T02:17:48.325Z,99.99
2023-05-11T02:18:48.342Z,99.99
2023-05-11T02:19:48.250Z,99.99
2023-05-11T02:20:48.322Z,99.99
2023-05-11T02:21:48.235Z,99.99
2023-05-11T02:22:48.254Z,99.99
2023-05-11T02:23:48.226Z,99.99
2023-05-11T02:24:48.192Z,99.99
2023-05-11T02:25:48.201Z,99.99
2023-05-11T02:26:48.184Z,99.99
2023-05-11T02:27:48.213Z,99.99
2023-05-11T02:28:48.176Z,99.99
2023-05-11T02:29:48.150Z,99.99
2023-05-11T02:30:48.133Z,99.99
2023-05-11T02:31:48.280Z,99.99
2023-05-11T02:32:48.152Z,99.99
2023-05-11T02:33:49.555Z,99.99
2023-05-11T02:34:48.095Z,99.99
2023-05-11T02:35:48.108Z,99.99
2023-05-11T02:36:48.082Z,99.99
2023-05-11T02:37:48.091Z,99.99
2023-05-11T02:38:48.068Z,99.99
2023-05-11T02:39:48.062Z,99.99
2023-05-11T02:40:48.022Z,99.99
2023-05-11T02:41:48.084Z,99.99
2023-05-11T02:42:48.004Z,99.99
2023-05-11T02:43:48.022Z,99.99
2023-05-11T02:44:47.987Z,99.99
2023-05-11T02:45:48.042Z,99.99
2023-05-11T02:46:48.035Z,99.99
2023-05-11T02:47:48.012Z,99.99
2023-05-11T02:48:47.950Z,99.99
2023-05-11T02:49:47.946Z,99.99
2023-05-11T02:50:47.924Z,99.99
2023-05-11T02:51:47.954Z,99.99
2023-05-11T02:52:47.890Z,99.99
2023-05-11T02:53:47.902Z,99.99
2023-05-11T02:54:47.870Z,99.99
2023-05-11T02:55:47.920Z,99.99
2023-05-11T02:56:47.861Z,99.99
2023-05-11T02:57:47.983Z,99.99
2023-05-11T02:58:47.844Z,99.99
2023-05-11T02:59:47.914Z,99.99
2023-05-11T03:00:47.943Z,99.99
2023-05-11T03:01:47.995Z,99.99
2023-05-11T03:02:47.850Z,99.99
2023-05-11T03:03:47.912Z,99.99
2023-05-11T03:04:47.799Z,99.99
2023-05-11T03:05:47.707Z,99.99
2023-05-11T03:06:47.716Z,99.99
2023-05-11T03:07:47.694Z,99.99
2023-05-11T03:08:47.678Z,99.99
2023-05-11T03:09:47.719Z,99.99
2023-05-11T03:10:47.658Z,99.99
2023-05-11T03:11:47.665Z,99.99
2023-05-11T03:12:47.642Z,99.99
2023-05-11T03:13:47.674Z,99.99
2023-05-11T03:14:47.632Z,99.99
2023-05-11T03:15:47.608Z,99.99
2023-05-11T03:16:47.695Z,99.99
2023-05-11T03:17:47.633Z,99.99
2023-05-11T03:18:47.629Z,99.99
2023-05-11T03:19:47.571Z,99.99
2023-05-11T03:20:47.577Z,99.99
2023-05-11T03:21:47.553Z,99.99
2023-05-11T03:22:47.541Z,99.99
2023-05-11T03:23:47.557Z,99.99
2023-05-11T03:24:47.549Z,99.99
2023-05-11T03:25:47.568Z,99.99
2023-05-11T03:26:47.490Z,99.99
2023-05-11T03:27:47.485Z,99.99
2023-05-11T03:28:47.483Z,99.99
2023-05-11T03:29:47.497Z,99.99
2023-05-11T03:30:47.461Z,99.99
2023-05-11T03:31:49.619Z,99.99
2023-05-11T03:32:47.577Z,99.99
2023-05-11T03:33:47.454Z,99.99
2023-05-11T03:34:47.415Z,99.99
2023-05-11T03:35:47.413Z,99.99
2023-05-11T03:36:47.388Z,99.99
2023-05-11T03:37:47.415Z,99.99
2023-05-11T03:38:47.371Z,99.99
2023-05-11T03:39:47.355Z,99.99
2023-05-11T03:40:47.335Z,99.99
2023-05-11T03:41:47.339Z,99.99
2023-05-11T03:42:47.360Z,99.99
2023-05-11T03:43:48.091Z,99.99
2023-05-11T03:44:47.308Z,99.99
2023-05-11T03:45:47.399Z,99.99
2023-05-11T03:46:47.357Z,99.99
2023-05-11T03:47:47.351Z,99.99
2023-05-11T03:48:47.267Z,99.99
2023-05-11T03:49:47.266Z,99.99
2023-05-11T03:50:47.232Z,99.99
2023-05-11T03:51:47.292Z,99.99
2023-05-11T03:52:47.214Z,99.99
2023-05-11T03:53:47.208Z,99.99
2023-05-11T03:54:47.199Z,99.99
2023-05-11T03:55:47.183Z,99.99
2023-05-11T03:56:47.210Z,99.99
2023-05-11T03:57:47.183Z,99.99
2023-05-11T03:58:47.168Z,99.99
2023-05-11T03:59:47.149Z,99.99
2023-05-11T04:00:47.166Z,99.99
2023-05-11T04:01:47.129Z,99.99
2023-05-11T04:02:47.249Z,99.99
2023-05-11T04:03:47.251Z,99.99
2023-05-11T04:04:47.094Z,99.99
2023-05-11T04:05:47.110Z,99.99
2023-05-11T04:06:47.056Z,99.99
2023-05-11T04:07:47.056Z,99.99
2023-05-11T04:08:47.058Z,99.99
2023-05-11T04:09:47.039Z,99.99
2023-05-11T04:10:47.074Z,99.99
2023-05-11T04:11:47.020Z,99.99
2023-05-11T04:12:47.008Z,99.99
2023-05-11T04:13:47.008Z,99.99
2023-05-11T04:14:47.010Z,99.99
2023-05-11T04:15:47.038Z,99.99
2023-05-11T04:16:46.970Z,99.99
2023-05-11T04:17:47.031Z,99.99
2023-05-11T04:18:47.024Z,99.99
2023-05-11T04:19:47.010Z,99.99
2023-05-11T04:20:46.973Z,99.99
2023-05-11T04:21:46.911Z,99.99
2023-05-11T04:22:46.931Z,99.99
2023-05-11T04:23:47.025Z,99.99
2023-05-11T04:24:46.957Z,99.99
2023-05-11T04:25:46.897Z,99.99
2023-05-11T04:26:46.909Z,99.99
2023-05-11T04:27:46.881Z,99.99
2023-05-11T04:28:46.949Z,99.99
2023-05-11T04:29:46.859Z,99.99
2023-05-11T04:30:46.846Z,99.99
2023-05-11T04:31:46.894Z,99.99
2023-05-11T04:32:46.887Z,99.99
2023-05-11T04:33:46.873Z,99.99
2023-05-11T04:34:46.780Z,99.99
2023-05-11T04:35:46.761Z,99.99
2023-05-11T04:36:46.802Z,99.99
2023-05-11T04:37:46.736Z,99.99
2023-05-11T04:38:46.739Z,99.99
2023-05-11T04:39:46.722Z,99.99
2023-05-11T04:40:46.783Z,99.99
2023-05-11T04:41:46.715Z,99.99
2023-05-11T04:42:46.708Z,99.99
2023-05-11T04:43:46.708Z,99.99
2023-05-11T04:44:46.666Z,99.99
2023-05-11T04:45:46.685Z,99.99
2023-05-11T04:46:46.696Z,99.99
2023-05-11T04:47:46.753Z,99.99
2023-05-11T04:48:46.655Z,99.99
2023-05-11T04:49:46.630Z,99.99
2023-05-11T04:50:46.676Z,99.99
2023-05-11T04:51:46.609Z,99.99
2023-05-11T04:52:46.639Z,99.99
2023-05-11T04:53:46.647Z,99.99
2023-05-11T04:54:46.624Z,99.99
2023-05-11T04:55:46.638Z,99.99
2023-05-11T04:56:46.575Z,99.99
2023-05-11T04:57:46.568Z,99.99
2023-05-11T04:58:46.630Z,99.99
2023-05-11T04:59:46.556Z,99.99
2023-05-11T05:00:46.525Z,99.99
2023-05-11T05:01:46.528Z,99.99
2023-05-11T05:02:46.558Z,99.99
2023-05-11T05:03:46.550Z,99.99
2023-05-11T05:04:46.459Z,99.99
2023-05-11T05:05:46.459Z,99.99
2023-05-11T05:06:46.760Z,99.99
2023-05-11T05:07:46.441Z,99.99
2023-05-11T05:08:46.426Z,99.99
2023-05-11T05:09:46.404Z,99.99
2023-05-11T05:10:46.483Z,99.99
2023-05-11T05:11:46.421Z,99.99
2023-05-11T05:12:46.415Z,99.99
2023-05-11T05:13:46.383Z,99.99
2023-05-11T05:14:46.355Z,99.99
2023-05-11T05:15:46.411Z,99.99
2023-05-11T05:16:46.379Z,99.99
2023-05-11T05:17:46.405Z,99.99
2023-05-11T05:18:46.321Z,99.99
2023-05-11T05:19:46.321Z,99.99
2023-05-11T05:20:46.491Z,99.99
2023-05-11T05:21:46.291Z,99.99
2023-05-11T05:22:46.367Z,99.99
2023-05-11T05:23:46.257Z,99.99
2023-05-11T05:24:46.290Z,99.99
2023-05-11T05:25:46.260Z,99.99
2023-05-11T05:26:46.230Z,99.99
2023-05-11T05:27:46.226Z,99.99
2023-05-11T05:28:46.212Z,99.99
2023-05-11T05:29:46.229Z,99.99
2023-05-11T05:30:46.313Z,99.99
2023-05-11T05:31:46.201Z,99.99
2023-05-11T05:32:46.233Z,99.99
2023-05-11T05:33:46.155Z,99.99
2023-05-11T05:34:46.184Z,99.99
2023-05-11T05:35:46.143Z,99.99
2023-05-11T05:36:46.119Z,99.99
2023-05-11T05:37:46.110Z,99.99
2023-05-11T05:38:46.142Z,99.99
2023-05-11T05:39:48.338Z,99.99
2023-05-11T05:40:46.101Z,99.99
2023-05-11T05:41:46.070Z,99.99
2023-05-11T05:42:46.079Z,99.99
2023-05-11T05:43:46.080Z,99.99
2023-05-11T05:44:46.039Z,99.99
2023-05-11T05:45:46.031Z,99.99
2023-05-11T05:46:46.058Z,99.99
2023-05-11T05:47:46.085Z,99.99
2023-05-11T05:48:46.027Z,99.99
2023-05-11T05:49:45.990Z,99.99
2023-05-11T05:50:45.987Z,99.99
2023-05-11T05:51:46.000Z,99.99
2023-05-11T05:52:46.002Z,99.99
2023-05-11T05:53:45.995Z,99.99
2023-05-11T05:54:45.932Z,99.99
2023-05-11T05:55:45.932Z,99.99
2023-05-11T05:56:45.906Z,99.99
2023-05-11T05:57:45.945Z,99.99
2023-05-11T05:58:45.888Z,99.99
2023-05-11T05:59:45.883Z,99.99
2023-05-11T06:00:45.878Z,99.99
2023-05-11T06:01:45.855Z,99.99
2023-05-11T06:02:45.941Z,99.99
2023-05-11T06:03:46.026Z,99.99
2023-05-11T06:04:45.853Z,99.99
2023-05-11T06:05:45.817Z,99.99
2023-05-11T06:06:45.853Z,99.99
2023-05-11T06:07:54.361Z,99.99
2023-05-11T06:08:45.793Z,99.99
2023-05-11T06:09:45.775Z,99.99
2023-05-11T06:10:45.757Z,99.99
2023-05-11T06:11:45.760Z,99.99
2023-05-11T06:12:45.761Z,99.99
2023-05-11T06:13:45.738Z,99.99
2023-05-11T06:14:45.714Z,99.99
2023-05-11T06:15:45.725Z,99.99
2023-05-11T06:16:45.803Z,99.99
2023-05-11T06:17:45.700Z,99.99
2023-05-11T06:18:45.717Z,99.99
2023-05-11T06:19:45.665Z,99.99
2023-05-11T06:20:45.718Z,99.99
2023-05-11T06:21:45.706Z,99.99
2023-05-11T06:22:45.638Z,99.99
2023-05-11T06:23:45.631Z,99.99
2023-05-11T06:24:45.611Z,99.99
2023-05-11T06:25:45.605Z,99.99
2023-05-11T06:26:45.626Z,99.99
2023-05-11T06:27:45.584Z,99.99
2023-05-11T06:28:45.565Z,99.99
2023-05-11T06:29:45.565Z,99.99
2023-05-11T06:33:53.866Z,99.99
2023-05-11T06:34:54.808Z,99.99
2023-05-11T06:35:54.881Z,99.99
2023-05-11T06:38:32.634Z,99.99
2023-05-11T06:39:54.998Z,99.99
2023-05-11T06:40:32.690Z,99.99
2023-05-11T06:41:38.298Z,99.99
2023-05-11T06:42:32.556Z,99.99
2023-05-11T06:47:26.952Z,99.99
2023-05-11T06:47:50.529Z,99.99
2023-05-11T06:49:48.745Z,99.99
2023-05-11T06:50:49.794Z,99.99
2023-05-11T06:51:49.672Z,99.99
2023-05-11T06:52:49.602Z,99.99
2023-05-11T06:53:49.640Z,99.99
2023-05-11T06:54:49.570Z,99.99
2023-05-11T06:55:49.579Z,99.99
2023-05-11T06:56:49.568Z,99.99
2023-05-11T06:57:49.700Z,99.99
2023-05-11T06:58:49.583Z,99.99
2023-05-11T06:59:49.572Z,99.99
2023-05-11T07:00:49.565Z,99.99
2023-05-11T07:01:49.539Z,99.99
2023-05-11T07:02:49.575Z,99.99
2023-05-11T07:03:50.412Z,99.99
2023-05-11T07:04:49.490Z,99.99
2023-05-11T07:05:49.494Z,99.58
2023-05-11T07:06:49.450Z,99.99
2023-05-11T07:07:49.479Z,99.99
2023-05-11T07:08:49.478Z,99.99
2023-05-11T07:09:49.432Z,99.99
2023-05-11T07:10:49.415Z,99.99
2023-05-11T07:11:49.402Z,99.99
2023-05-11T07:12:49.420Z,99.99
2023-05-11T07:13:49.393Z,99.94
2023-05-11T07:14:49.396Z,99.07
2023-05-11T07:15:49.350Z,99.48
2023-05-11T07:16:49.402Z,99.99
2023-05-11T07:17:49.502Z,99.58
2023-05-11T07:18:49.438Z,99.99
2023-05-11T07:19:49.333Z,99.99
2023-05-11T07:20:49.305Z,99.99
2023-05-11T07:21:49.339Z,99.99
2023-05-11T07:22:49.304Z,99.99
2023-05-11T07:23:49.325Z,99.99
2023-05-11T07:24:49.296Z,99.99
2023-05-11T07:25:49.276Z,99.99
2023-05-11T07:26:49.303Z,99.99
2023-05-11T07:27:49.254Z,99.99
2023-05-11T07:28:49.271Z,99.99
2023-05-11T07:29:49.239Z,99.99
2023-05-11T07:30:49.333Z,99.94
2023-05-11T07:31:49.363Z,99.84
2023-05-11T07:32:49.242Z,99.99
2023-05-11T07:33:49.274Z,99.99
2023-05-11T07:34:49.156Z,99.53
2023-05-11T07:35:49.160Z,99.99
2023-05-11T07:36:49.129Z,99.99
2023-05-11T07:37:49.174Z,99.99
2023-05-11T07:38:49.128Z,99.99
2023-05-11T07:39:49.129Z,99.63
2023-05-11T07:40:49.098Z,99.99
2023-05-11T07:41:49.090Z,99.99
2023-05-11T07:42:49.111Z,99.99
2023-05-11T07:43:49.080Z,99.99
2023-05-11T07:44:49.047Z,99.99
2023-05-11T07:45:49.068Z,99.99
2023-05-11T07:46:49.109Z,99.99
2023-05-11T07:47:49.072Z,99.99
2023-05-11T07:48:51.629Z,99.99
2023-05-11T07:49:49.054Z,99.99
2023-05-11T07:50:49.066Z,99.99
2023-05-11T07:51:49.025Z,99.99
2023-05-11T07:52:49.445Z,99.99
2023-05-11T07:53:48.978Z,99.99
2023-05-11T07:54:49.032Z,99.99
2023-05-11T07:55:49.049Z,99.99
2023-05-11T07:56:48.957Z,99.99
2023-05-11T07:57:48.930Z,99.99
2023-05-11T07:58:48.956Z,99.99
2023-05-11T07:59:48.945Z,99.99
2023-05-11T08:00:48.902Z,99.99
2023-05-11T08:01:48.976Z,99.99
2023-05-11T08:02:48.974Z,99.99
2023-05-11T08:03:48.908Z,99.99
2023-05-11T08:04:48.892Z,99.99
2023-05-11T08:05:48.901Z,99.99
2023-05-11T08:06:48.825Z,99.99
2023-05-11T08:07:48.853Z,99.99
2023-05-11T08:08:48.908Z,99.99
2023-05-11T08:09:48.814Z,99.99
2023-05-11T08:10:48.796Z,99.99
2023-05-11T08:11:48.781Z,99.99
2023-05-11T08:12:48.770Z,99.99
2023-05-11T08:13:48.870Z,99.99
2023-05-11T08:14:48.728Z,99.99
2023-05-11T08:15:48.772Z,99.99
2023-05-11T08:16:48.870Z,99.99
2023-05-11T08:17:48.848Z,99.99
2023-05-11T08:18:48.760Z,99.99
2023-05-11T08:19:48.691Z,99.99
2023-05-11T08:20:48.705Z,99.99
2023-05-11T08:21:48.709Z,99.99
2023-05-11T08:22:48.659Z,99.99
2023-05-11T08:23:48.667Z,99.99
2023-05-11T08:24:48.631Z,99.99
2023-05-11T08:25:48.654Z,99.99
2023-05-11T08:26:48.614Z,99.99
2023-05-11T08:27:48.648Z,99.99
2023-05-11T08:28:48.621Z,99.99
2023-05-11T08:29:48.601Z,99.99
2023-05-11T08:30:48.615Z,99.99
2023-05-11T08:31:48.666Z,99.99
2023-05-11T08:32:57.847Z,99.99
2023-05-11T08:33:48.648Z,99.99
2023-05-11T08:34:48.623Z,99.99
2023-05-11T08:35:48.531Z,99.99
2023-05-11T08:36:48.548Z,99.99
2023-05-11T08:37:48.529Z,99.99
2023-05-11T08:38:48.528Z,99.99
2023-05-11T08:39:48.499Z,99.99
2023-05-11T08:40:48.507Z,99.99
2023-05-11T08:41:48.555Z,99.99
2023-05-11T08:42:48.467Z,99.99
2023-05-11T08:43:48.470Z,99.99
2023-05-11T08:44:48.443Z,99.99
2023-05-11T08:45:48.480Z,99.99
2023-05-11T08:46:48.414Z,99.99
2023-05-11T08:47:48.441Z,99.99
2023-05-11T08:48:48.428Z,99.99
2023-05-11T08:49:48.472Z,99.99
2023-05-11T08:50:48.410Z,99.99
2023-05-11T08:51:48.361Z,99.99
2023-05-11T08:52:48.356Z,99.99
2023-05-11T08:53:48.369Z,99.99
2023-05-11T08:54:48.372Z,99.33
2023-05-11T08:55:48.352Z,99.99
2023-05-11T08:56:48.296Z,99.99
2023-05-11T08:57:48.295Z,99.99
2023-05-11T08:58:48.276Z,99.85
2023-05-11T08:59:48.316Z,99.99
2023-05-11T09:00:48.286Z,99.99
2023-05-11T09:01:48.318Z,99.99
2023-05-11T09:02:48.263Z,99.99
2023-05-11T09:03:48.256Z,99.49
2023-05-11T09:04:49.104Z,98.99
2023-05-11T09:05:48.351Z,99.99
2023-05-11T09:06:48.186Z,99.99
2023-05-11T09:07:48.225Z,99.99
2023-05-11T09:08:48.196Z,98.28
2023-05-11T09:09:48.191Z,99.50
2023-05-11T09:10:48.157Z,99.99
2023-05-11T09:11:48.178Z,99.99
2023-05-11T09:12:48.130Z,99.19
2023-05-11T09:13:48.171Z,98.85
2023-05-11T09:14:48.141Z,99.35
2023-05-11T09:15:48.165Z,99.76
2023-05-11T09:16:48.185Z,99.96
2023-05-11T09:17:48.167Z,99.99
2023-05-11T09:18:48.109Z,98.65
2023-05-11T09:19:48.087Z,98.34
2023-05-11T09:20:48.039Z,98.34
2023-05-11T09:21:48.046Z,97.23
2023-05-11T09:22:48.034Z,97.94
2023-05-11T09:23:48.115Z,96.72
2023-05-11T09:24:47.995Z,97.33
2023-05-11T09:25:48.015Z,97.73
2023-05-11T09:26:47.964Z,96.82
2023-05-11T09:27:48.044Z,99.05
2023-05-11T09:29:51.906Z,98.03
2023-05-11T09:30:47.968Z,99.35
2023-05-11T09:31:47.949Z,99.10
2023-05-11T09:32:48.004Z,96.27
2023-05-11T09:33:47.921Z,98.29
2023-05-11T09:34:47.891Z,98.90
2023-05-11T09:35:47.898Z,98.70
2023-05-11T09:36:47.879Z,99.91
2023-05-11T09:37:47.918Z,97.58
2023-05-11T09:38:47.930Z,95.56
2023-05-11T09:40:47.825Z,94.95
2023-05-11T09:41:47.881Z,96.98
2023-05-11T09:42:47.848Z,96.78
2023-05-11T09:43:47.841Z,95.66
2023-05-11T09:44:47.824Z,97.99
2023-05-11T09:45:47.812Z,97.38
2023-05-11T09:46:47.961Z,99.01
2023-05-11T09:47:49.127Z,98.60
2023-05-11T09:48:47.759Z,99.56
2023-05-11T09:49:47.848Z,98.96
2023-05-11T09:50:47.776Z,98.45
2023-05-11T09:51:47.769Z,95.31
2023-05-11T09:52:47.733Z,97.44
2023-05-11T09:53:47.702Z,97.60
2023-05-11T09:54:47.693Z,98.91
2023-05-11T09:55:47.722Z,97.29
2023-05-11T09:56:47.693Z,94.46
2023-05-11T09:57:47.660Z,95.07
2023-05-11T09:58:47.711Z,98.00
2023-05-11T09:59:47.671Z,96.64
2023-05-11T10:00:47.654Z,95.32
2023-05-11T10:01:47.639Z,93.00
2023-05-11T10:02:47.628Z,94.11
2023-05-11T10:03:47.668Z,96.44
2023-05-11T10:04:47.590Z,96.34
2023-05-11T10:05:47.629Z,95.83
2023-05-11T10:06:47.568Z,95.53
2023-05-11T10:07:47.575Z,94.82
2023-05-11T10:08:47.570Z,94.07
2023-05-11T10:09:47.608Z,92.85
2023-05-11T10:10:47.549Z,91.08
2023-05-11T10:11:47.596Z,94.51
2023-05-11T10:12:47.501Z,93.10
2023-05-11T10:13:47.520Z,93.20
2023-05-11T10:14:47.500Z,91.49
2023-05-11T10:15:47.509Z,92.54
2023-05-11T10:16:47.474Z,94.66
2023-05-11T10:17:47.479Z,95.67
2023-05-11T10:18:47.494Z,96.28
2023-05-11T10:19:47.474Z,97.75
2023-05-11T10:20:47.421Z,97.14
2023-05-11T10:21:47.429Z,95.12
2023-05-11T10:22:47.411Z,97.05
2023-05-11T10:23:47.505Z,95.78
2023-05-11T10:24:47.398Z,95.47
2023-05-11T10:25:47.382Z,95.87
2023-05-11T10:26:47.383Z,96.58
2023-05-11T10:27:47.343Z,93.75
2023-05-11T10:28:47.386Z,95.87
2023-05-11T10:29:47.356Z,94.15
2023-05-11T10:30:47.322Z,92.94
2023-05-11T10:31:47.363Z,95.17
2023-05-11T10:32:47.369Z,95.57
2023-05-11T10:33:49.138Z,94.96
2023-05-11T10:34:47.288Z,93.35
2023-05-11T10:35:47.301Z,96.02
2023-05-11T10:36:47.256Z,96.12
2023-05-11T10:37:47.239Z,95.42
2023-05-11T10:38:47.280Z,96.22
2023-05-11T10:39:49.348Z,98.35
2023-05-11T10:40:47.214Z,97.44
2023-05-11T10:41:47.195Z,97.39
2023-05-11T10:42:47.224Z,96.78
2023-05-11T10:43:47.199Z,97.90
2023-05-11T10:44:47.186Z,96.42
2023-05-11T10:45:47.254Z,98.65
2023-05-11T10:46:47.147Z,97.03
2023-05-11T10:47:47.211Z,95.62
2023-05-11T10:48:47.155Z,94.35
2023-05-11T10:49:47.095Z,94.24
2023-05-11T10:50:47.100Z,96.72
2023-05-11T10:51:47.094Z,98.03
2023-05-11T10:52:47.132Z,96.01
2023-05-11T10:53:47.083Z,96.82
2023-05-11T10:54:47.079Z,98.59
2023-05-11T10:55:47.280Z,99.70
2023-05-11T10:56:47.061Z,99.30
2023-05-11T10:57:47.068Z,98.28
2023-05-11T10:58:47.030Z,98.03
2023-05-11T10:59:47.012Z,99.65
2023-05-11T11:00:47.063Z,99.60
2023-05-11T11:01:47.078Z,99.99
2023-05-11T11:02:46.988Z,99.99
2023-05-11T11:03:46.965Z,99.99
2023-05-11T11:04:46.940Z,99.99
2023-05-11T11:05:46.924Z,99.99
2023-05-11T11:06:46.949Z,99.99
2023-05-11T11:07:46.908Z,99.99
2023-05-11T11:08:46.932Z,99.99
2023-05-11T11:09:47.143Z,99.99
2023-05-11T11:10:47.124Z,99.99
2023-05-11T11:11:47.069Z,99.99
2023-05-11T11:12:46.946Z,99.99
2023-05-11T11:13:47.003Z,99.99
2023-05-11T11:14:46.937Z,99.99
2023-05-11T11:15:46.968Z,99.99
2023-05-11T11:16:46.979Z,99.99
2023-05-11T11:17:46.954Z,99.99
2023-05-11T11:18:47.023Z,99.99
2023-05-11T11:19:46.936Z,99.99
2023-05-11T11:20:46.856Z,99.99
2023-05-11T11:21:46.783Z,99.99
2023-05-11T11:22:46.760Z,99.99
2023-05-11T11:23:46.756Z,99.35
2023-05-11T11:24:46.878Z,99.99
2023-05-11T11:25:46.753Z,99.99
2023-05-11T11:26:46.707Z,99.99
2023-05-11T11:27:46.701Z,99.99
2023-05-11T11:28:46.703Z,99.99
2023-05-11T11:29:46.706Z,98.44
2023-05-11T11:30:46.700Z,99.66
2023-05-11T11:31:46.736Z,98.03
2023-05-11T11:32:46.724Z,98.03
2023-05-11T11:33:46.723Z,98.85
2023-05-11T11:34:46.665Z,99.99
2023-05-11T11:35:46.613Z,99.99
2023-05-11T11:36:46.665Z,99.99
2023-05-11T11:37:46.605Z,98.39
2023-05-11T11:38:46.594Z,99.99
2023-05-11T11:39:46.576Z,98.25
2023-05-11T11:40:51.075Z,97.54
2023-05-11T11:41:46.577Z,96.22
2023-05-11T11:42:46.557Z,98.45
2023-05-11T11:43:46.548Z,99.99
2023-05-11T11:44:46.513Z,99.99
2023-05-11T11:45:46.509Z,99.01
2023-05-11T11:46:46.590Z,99.21
2023-05-11T11:47:46.543Z,99.99
2023-05-11T11:48:46.494Z,99.47
2023-05-11T11:49:46.466Z,96.13
2023-05-11T11:50:46.461Z,95.22
2023-05-11T11:51:46.452Z,95.67
2023-05-11T11:52:46.463Z,97.55
2023-05-11T11:53:46.422Z,98.16
2023-05-11T11:54:46.428Z,95.73
2023-05-11T11:55:46.422Z,96.44
2023-05-11T11:56:46.388Z,98.25
2023-05-11T11:57:46.396Z,98.56
2023-05-11T11:58:46.373Z,96.64
2023-05-11T11:59:46.358Z,96.44
2023-05-11T12:00:46.345Z,98.31
2023-05-11T12:01:46.685Z,96.29
2023-05-11T12:02:46.411Z,94.98
2023-05-11T12:03:46.490Z,95.68
2023-05-11T12:04:46.390Z,95.73
2023-05-11T12:05:46.291Z,97.45
2023-05-11T12:06:46.313Z,95.93
2023-05-11T12:07:46.292Z,97.09
2023-05-11T12:08:46.272Z,93.15
2023-05-11T12:09:46.287Z,93.79
2023-05-11T12:10:46.248Z,94.91
2023-05-11T12:11:46.255Z,96.42
2023-05-11T12:12:46.226Z,98.29
2023-05-11T12:13:46.203Z,98.50
2023-05-11T12:14:46.205Z,96.98
2023-05-11T12:15:46.225Z,96.37
2023-05-11T12:16:46.350Z,95.86
2023-05-11T12:17:46.218Z,96.37
2023-05-11T12:18:46.199Z,97.24
2023-05-11T12:19:46.145Z,99.05
2023-05-11T12:20:46.181Z,99.16
2023-05-11T12:21:46.187Z,99.97
2023-05-11T12:22:46.140Z,98.60
2023-05-11T12:23:46.102Z,97.38
2023-05-11T12:24:46.076Z,98.09
2023-05-11T12:25:46.136Z,97.73
2023-05-11T12:26:46.161Z,99.99
2023-05-11T12:27:46.051Z,99.91
2023-05-11T12:28:46.074Z,99.99
2023-05-11T12:29:46.043Z,99.99
2023-05-11T12:30:46.061Z,99.04
2023-05-11T12:31:54.221Z,99.55
2023-05-11T12:32:46.041Z,99.99
2023-05-11T12:33:45.996Z,99.99
2023-05-11T12:34:46.006Z,99.99
2023-05-11T12:35:45.997Z,99.99
2023-05-11T12:36:45.977Z,99.99
2023-05-11T12:37:45.955Z,99.99
2023-05-11T12:38:45.928Z,99.99
2023-05-11T12:39:45.930Z,99.99
2023-05-11T12:40:45.961Z,99.99
2023-05-11T12:41:45.925Z,99.99
2023-05-11T12:42:45.901Z,99.99
2023-05-11T12:43:45.880Z,99.99
2023-05-11T12:44:45.951Z,99.99
2023-05-11T12:45:45.856Z,99.99
2023-05-11T12:46:45.914Z,99.99
2023-05-11T12:47:45.886Z,99.99
2023-05-11T12:48:45.862Z,99.99
2023-05-11T12:49:45.860Z,99.99
2023-05-11T12:50:45.801Z,99.99
2023-05-11T12:51:45.787Z,99.99
2023-05-11T12:52:45.786Z,99.99
2023-05-11T12:53:45.773Z,99.99
2023-05-11T12:54:45.793Z,99.99
2023-05-11T12:55:45.797Z,99.99
2023-05-11T12:56:45.748Z,99.99
2023-05-11T12:57:45.995Z,99.99
2023-05-11T12:58:45.760Z,99.99
2023-05-11T12:59:45.704Z,99.99
2023-05-11T13:00:45.702Z,99.99
2023-05-11T13:01:45.750Z,99.99
2023-05-11T13:02:45.821Z,99.99
2023-05-11T13:03:45.862Z,99.99